Weather at Bingara Airport

Public forecast

Using degrees Celsius for public forecast. Weather courtesy of forecast.io.

Closest aviation weather report (METAR) to Bingara Airport

Closest report is Moree Airport, 40.2 nm (74.4 km) WNW. Retrieved 2021/01/28 04:00 UTC (22 minutes ago):

YMOR 280400Z AUTO 04017KT 040V120 9999 // SCT070 35/14 Q1010

Closest aviation forecast (TAF) to Bingara Airport

Closest forecast is Tamworth Airport, 78.8 nm (145.9 km) SSE. Retrieved 2021-01-28 00:36 UTC (4 hours ago):

TAF TAF YSTW 272322Z 2800/2818 16012KT 9999 SCT050 FM280200 13014KT 9999 -SHRA SCT045 FM281000 14012KT 9999 NSW SCT030 INTER 2803/2810 5000 SHRA BKN015